Sao Bento, Brazil
Current Conditions -  °F | °C
As of 3:00 AM on Thursday 29 Jan 2015 (Local Time) from SBKG Reporting Station
Clear Clear  
Wind Chill: 70°   Ceiling: Unl
Heat Index: 70°   Visibility: 6mi
Dew Point: 68°   Wind: 7mph
Humidity: 94%   Direction: 80°E
Pressure: 29.94"   Gusts: NA
Location:  6.49°S, 37.45°W
Report Text: SBKG 290600Z 08006KT CAVOK 21/20 Q1014
Loading
Personal Weather Stations






























Interactive Weather Map New forecast layout! Learn more

10-Day Weather Forecast

Advertisements
Track Severe Weather on mobile